createdAt,value
2018-08-20T00:02:22.503Z,9.03
2018-08-20T00:04:51.030Z,9.90
2018-08-20T00:07:19.072Z,12.93
2018-08-20T00:09:47.093Z,9.07
2018-08-20T00:12:16.917Z,15.23
2018-08-20T00:14:44.922Z,10.90
2018-08-20T00:17:12.947Z,9.50
2018-08-20T00:19:41.555Z,12.63
2018-08-20T00:22:09.778Z,9.90
2018-08-20T00:24:37.850Z,13.40
2018-08-20T00:27:05.871Z,10.00
2018-08-20T00:29:36.382Z,9.87
2018-08-20T00:32:04.525Z,10.00
2018-08-20T00:34:32.547Z,10.50
2018-08-20T00:37:00.607Z,11.17
2018-08-20T00:39:28.601Z,18.43
2018-08-20T00:41:56.598Z,10.07
2018-08-20T00:44:24.604Z,11.77
2018-08-20T00:46:52.609Z,11.50
2018-08-20T00:49:20.633Z,11.07
2018-08-20T00:51:48.636Z,10.83
2018-08-20T00:54:16.651Z,11.23
2018-08-20T00:56:44.662Z,10.73
2018-08-20T00:59:12.695Z,11.40
2018-08-20T01:01:40.694Z,11.30
2018-08-20T01:04:08.703Z,10.40
2018-08-20T01:06:36.696Z,13.90
2018-08-20T01:09:08.999Z,12.17
2018-08-20T01:11:37.402Z,18.33
2018-08-20T01:14:05.413Z,11.03
2018-08-20T01:16:33.460Z,12.10
2018-08-20T01:19:01.464Z,12.10
2018-08-20T01:21:29.471Z,13.20
2018-08-20T01:23:57.494Z,13.07
2018-08-20T01:26:25.526Z,12.97
2018-08-20T01:28:53.559Z,11.57
2018-08-20T01:31:21.675Z,11.80
2018-08-20T01:33:49.683Z,13.47
2018-08-20T01:36:17.735Z,11.33
2018-08-20T01:38:45.904Z,11.80
2018-08-20T01:41:13.916Z,10.60
2018-08-20T01:43:41.943Z,11.83
2018-08-20T01:46:10.014Z,11.87
2018-08-20T01:48:38.310Z,13.43
2018-08-20T01:51:06.375Z,10.20
2018-08-20T01:53:34.399Z,9.30
2018-08-20T01:56:02.424Z,10.90
2018-08-20T01:58:31.131Z,10.40
2018-08-20T02:00:59.157Z,12.50
2018-08-20T02:03:27.910Z,11.83
2018-08-20T02:05:55.970Z,11.80
2018-08-20T02:08:23.999Z,10.67
2018-08-20T02:10:52.025Z,10.30
2018-08-20T02:13:20.103Z,9.67
2018-08-20T02:15:49.048Z,12.60
2018-08-20T02:18:17.981Z,9.93
2018-08-20T02:20:46.121Z,10.83
2018-08-20T02:23:15.403Z,11.13
2018-08-20T02:25:43.554Z,10.17
2018-08-20T02:28:12.087Z,13.53
2018-08-20T02:30:40.986Z,13.10
2018-08-20T02:33:09.158Z,11.70
2018-08-20T02:35:38.179Z,17.90
2018-08-20T02:38:07.122Z,11.77
2018-08-20T02:40:35.191Z,11.43
2018-08-20T02:43:03.671Z,13.27
2018-08-20T02:45:32.161Z,15.03
2018-08-20T02:48:00.621Z,13.40
2018-08-20T02:50:28.683Z,14.30
2018-08-20T02:52:56.737Z,13.13
2018-08-20T02:55:25.254Z,13.93
2018-08-20T02:57:53.391Z,11.80
2018-08-20T03:00:21.461Z,22.00
2018-08-20T03:02:49.506Z,14.33
2018-08-20T03:05:17.604Z,12.20
2018-08-20T03:07:45.643Z,12.20
2018-08-20T03:10:14.173Z,11.73
2018-08-20T03:12:43.372Z,12.67
2018-08-20T03:15:11.706Z,17.13
2018-08-20T03:17:39.780Z,11.23
2018-08-20T03:20:08.187Z,20.10
2018-08-20T03:22:36.681Z,17.40
2018-08-20T03:25:05.506Z,12.23
2018-08-20T03:27:33.975Z,13.97
2018-08-20T03:30:02.110Z,12.30
2018-08-20T03:32:30.240Z,13.30
2018-08-20T03:34:58.362Z,14.37
2018-08-20T03:37:26.603Z,14.20
2018-08-20T03:39:54.747Z,12.50
2018-08-20T03:42:22.867Z,13.17
2018-08-20T03:44:50.928Z,13.83
2018-08-20T03:47:19.029Z,17.90
2018-08-20T03:49:47.149Z,13.00
2018-08-20T03:52:15.211Z,13.87
2018-08-20T03:54:43.298Z,12.90
2018-08-20T03:57:11.372Z,14.73
2018-08-20T03:59:39.388Z,12.10
2018-08-20T04:02:08.052Z,12.40
2018-08-20T04:04:36.079Z,11.73
2018-08-20T04:07:05.217Z,14.83
2018-08-20T04:09:33.662Z,13.37
2018-08-20T04:12:02.492Z,13.80
2018-08-20T04:14:30.494Z,13.33
2018-08-20T04:16:59.258Z,14.27
2018-08-20T04:19:27.617Z,22.40
2018-08-20T04:21:55.622Z,12.80
2018-08-20T04:24:23.668Z,13.07
2018-08-20T04:26:52.047Z,14.13
2018-08-20T04:29:20.626Z,13.97
2018-08-20T04:31:48.634Z,14.03
2018-08-20T04:34:16.695Z,14.20
2018-08-20T04:36:44.707Z,14.03
2018-08-20T04:39:12.746Z,12.97
2018-08-20T04:41:40.805Z,15.93
2018-08-20T04:44:09.108Z,15.03
2018-08-20T04:46:37.240Z,16.30
2018-08-20T04:49:05.273Z,13.63
2018-08-20T04:51:33.358Z,13.60
2018-08-20T04:54:01.333Z,13.67
2018-08-20T04:56:29.404Z,13.87
2018-08-20T04:58:57.402Z,13.93
2018-08-20T05:01:25.462Z,13.97
2018-08-20T05:03:53.523Z,14.50
2018-08-20T05:06:21.510Z,13.60
2018-08-20T05:08:49.565Z,12.10
2018-08-20T05:11:17.617Z,12.70
2018-08-20T05:13:45.602Z,12.43
2018-08-20T05:16:13.660Z,13.40
2018-08-20T05:18:41.723Z,13.43
2018-08-20T05:21:09.772Z,11.80
2018-08-20T05:23:37.822Z,12.50
2018-08-20T05:26:05.892Z,10.77
2018-08-20T05:28:33.886Z,11.70
2018-08-20T05:31:01.945Z,11.47
2018-08-20T05:33:30.078Z,10.97
2018-08-20T05:35:58.120Z,12.93
2018-08-20T05:38:26.140Z,14.10
2018-08-20T05:40:54.141Z,11.00
2018-08-20T05:43:22.160Z,12.90
2018-08-20T05:45:50.200Z,15.33
2018-08-20T05:48:18.185Z,22.70
2018-08-20T05:50:46.214Z,12.83
2018-08-20T05:53:14.221Z,9.80
2018-08-20T05:55:42.228Z,15.50
2018-08-20T05:58:10.196Z,10.53
2018-08-20T06:00:38.197Z,10.80
2018-08-20T06:03:06.210Z,10.60
2018-08-20T06:05:34.245Z,9.97
2018-08-20T06:08:02.215Z,10.30
2018-08-20T06:10:30.171Z,11.63
2018-08-20T06:12:58.158Z,8.40
2018-08-20T06:15:26.177Z,8.87
2018-08-20T06:17:54.162Z,7.57
2018-08-20T06:20:22.173Z,8.47
2018-08-20T06:22:50.150Z,7.80
2018-08-20T06:25:18.196Z,12.10
2018-08-20T06:27:46.224Z,8.33
2018-08-20T06:30:15.789Z,6.90
2018-08-20T06:32:43.933Z,8.37
2018-08-20T06:35:12.413Z,9.63
2018-08-20T06:37:41.185Z,6.40
2018-08-20T06:40:11.027Z,19.37
2018-08-20T06:42:39.207Z,6.93
2018-08-20T06:45:08.732Z,8.63
2018-08-20T06:47:36.864Z,5.87
2018-08-20T06:50:05.069Z,8.77
2018-08-20T06:52:33.151Z,7.03
2018-08-20T06:55:01.287Z,8.57
2018-08-20T06:57:29.347Z,13.67
2018-08-20T06:59:57.403Z,7.00
2018-08-20T07:02:25.477Z,6.53
2018-08-20T07:04:53.519Z,7.23
2018-08-20T07:07:21.637Z,6.03
2018-08-20T07:09:49.651Z,5.37
2018-08-20T07:12:17.694Z,9.30
2018-08-20T07:14:45.745Z,5.47
2018-08-20T07:17:13.781Z,8.13
2018-08-20T07:19:42.420Z,12.43
2018-08-20T07:22:10.442Z,9.43
2018-08-20T07:24:38.470Z,10.70
2018-08-20T07:27:06.497Z,6.90
2018-08-20T07:29:40.220Z,16.73
2018-08-20T07:32:10.877Z,6.00
2018-08-20T07:34:41.220Z,6.80
2018-08-20T07:37:11.153Z,10.23
2018-08-20T07:39:39.995Z,6.33
2018-08-20T07:42:08.058Z,6.10
2018-08-20T07:44:36.354Z,5.60
2018-08-20T07:47:05.113Z,7.00
2018-08-20T07:49:33.167Z,7.30
2018-08-20T07:52:01.422Z,6.30
2018-08-20T07:54:29.735Z,8.10
2018-08-20T07:56:57.834Z,7.27
2018-08-20T07:59:25.987Z,3.90
2018-08-20T08:01:54.428Z,4.43
2018-08-20T08:04:43.161Z,5.83
2018-08-20T08:07:11.407Z,3.27
2018-08-20T08:09:39.797Z,6.07
2018-08-20T08:12:08.002Z,4.73
2018-08-20T08:14:36.209Z,5.50
2018-08-20T08:17:04.309Z,7.10
2018-08-20T08:19:32.638Z,6.47
2018-08-20T08:22:00.765Z,3.80
2018-08-20T08:24:28.994Z,3.60
2018-08-20T08:26:57.145Z,3.50
2018-08-20T08:29:25.446Z,3.60
2018-08-20T08:32:00.931Z,3.17
2018-08-20T08:34:30.402Z,6.60
2018-08-20T08:36:58.994Z,3.90
2018-08-20T08:39:27.460Z,3.73
2018-08-20T08:41:55.816Z,4.47
2018-08-20T08:44:24.366Z,6.93
2018-08-20T08:46:52.710Z,3.97
2018-08-20T08:49:20.850Z,9.63
2018-08-20T08:51:48.976Z,3.60
2018-08-20T08:54:17.428Z,2.70
2018-08-20T08:56:45.591Z,3.30
2018-08-20T08:59:13.976Z,3.13
2018-08-20T09:01:42.349Z,10.67
2018-08-20T09:04:10.597Z,3.60
2018-08-20T09:06:38.864Z,3.70
2018-08-20T09:09:06.993Z,9.70
2018-08-20T09:11:35.355Z,3.73
2018-08-20T09:14:03.500Z,2.80
2018-08-20T09:16:31.870Z,2.40
2018-08-20T09:19:00.164Z,4.83
2018-08-20T09:21:28.616Z,2.40
2018-08-20T09:23:56.895Z,2.83
2018-08-20T09:26:25.022Z,3.30
2018-08-20T09:28:53.184Z,4.93
2018-08-20T09:31:21.467Z,2.43
2018-08-20T09:33:49.615Z,5.20
2018-08-20T09:36:17.789Z,3.80
2018-08-20T09:38:46.031Z,2.50
2018-08-20T09:41:14.203Z,2.40
2018-08-20T09:43:42.489Z,3.40
2018-08-20T09:46:11.731Z,2.60
2018-08-20T09:48:39.896Z,2.53
2018-08-20T09:51:08.319Z,2.23
2018-08-20T09:53:36.840Z,2.60
2018-08-20T09:56:05.288Z,3.63
2018-08-20T09:58:33.461Z,2.20
2018-08-20T10:01:01.648Z,4.27
2018-08-20T10:03:30.313Z,3.40
2018-08-20T10:06:00.015Z,4.03
2018-08-20T10:08:28.660Z,2.20
2018-08-20T10:10:56.853Z,4.40
2018-08-20T10:13:27.692Z,3.03
2018-08-20T10:15:55.894Z,3.43
2018-08-20T10:18:24.196Z,6.03
2018-08-20T10:20:54.288Z,3.00
2018-08-20T10:23:22.381Z,3.53
2018-08-20T10:25:50.638Z,6.50
2018-08-20T10:28:19.236Z,2.90
2018-08-20T10:30:47.530Z,2.70
2018-08-20T10:33:15.918Z,5.37
2018-08-20T10:35:44.130Z,8.70
2018-08-20T10:38:12.246Z,3.07
2018-08-20T10:40:40.352Z,3.20
2018-08-20T10:43:08.792Z,3.57
2018-08-20T10:45:42.595Z,3.17
2018-08-20T10:48:11.076Z,4.53
2018-08-20T10:50:39.210Z,2.87
2018-08-20T10:53:07.404Z,2.70
2018-08-20T10:55:35.915Z,2.50
2018-08-20T10:58:04.083Z,3.90
2018-08-20T11:00:32.195Z,2.00
2018-08-20T11:03:00.690Z,2.07
2018-08-20T11:05:29.149Z,2.60
2018-08-20T11:07:57.396Z,3.00
2018-08-20T11:10:25.610Z,2.63
2018-08-20T11:12:54.081Z,2.60
2018-08-20T11:15:22.477Z,2.10
2018-08-20T11:17:50.703Z,1.90
2018-08-20T11:20:18.817Z,2.90
2018-08-20T11:22:50.689Z,4.17
2018-08-20T11:25:19.901Z,2.90
2018-08-20T11:27:48.160Z,3.90
2018-08-20T11:30:16.298Z,3.37
2018-08-20T11:32:44.589Z,3.50
2018-08-20T11:35:12.811Z,2.87
2018-08-20T11:37:41.141Z,4.63
2018-08-20T11:40:09.586Z,2.70
2018-08-20T11:42:37.887Z,2.20
2018-08-20T11:45:07.008Z,2.70
2018-08-20T11:47:35.167Z,4.87
2018-08-20T11:50:03.660Z,3.83
2018-08-20T11:52:31.759Z,4.80
2018-08-20T11:54:59.848Z,4.57
2018-08-20T11:57:27.888Z,5.77
2018-08-20T11:59:55.925Z,3.10
2018-08-20T12:02:23.950Z,2.43
2018-08-20T12:04:52.106Z,3.10
2018-08-20T12:07:20.210Z,9.47
2018-08-20T12:09:48.712Z,3.07
2018-08-20T12:12:16.860Z,2.80
2018-08-20T12:14:45.146Z,4.47
2018-08-20T12:17:13.730Z,2.63
2018-08-20T12:19:41.902Z,2.47
2018-08-20T12:22:09.954Z,2.50
2018-08-20T12:24:37.992Z,5.53
2018-08-20T12:27:06.168Z,2.77
2018-08-20T12:29:34.183Z,3.50
2018-08-20T12:32:02.299Z,2.90
2018-08-20T12:34:34.797Z,1.90
2018-08-20T12:37:04.463Z,3.10
2018-08-20T12:39:32.999Z,2.83
2018-08-20T12:42:03.694Z,2.83
2018-08-20T12:44:38.194Z,2.27
2018-08-20T12:49:52.683Z,2.43
2018-08-20T12:52:24.997Z,6.03
2018-08-20T12:54:53.861Z,6.70
2018-08-20T12:57:22.473Z,3.73
2018-08-20T12:59:59.620Z,7.50
2018-08-20T13:02:28.369Z,2.50
2018-08-20T13:04:56.401Z,3.90
2018-08-20T13:07:34.038Z,3.83
2018-08-20T13:10:02.126Z,4.07
2018-08-20T13:12:30.189Z,3.10
2018-08-20T13:14:58.212Z,3.87
2018-08-20T13:17:26.361Z,4.37
2018-08-20T13:19:54.417Z,8.13
2018-08-20T13:22:22.512Z,5.43
2018-08-20T13:24:50.578Z,3.00
2018-08-20T13:27:18.650Z,3.50
2018-08-20T13:29:46.694Z,3.33
2018-08-20T13:32:14.696Z,3.30
2018-08-20T13:34:42.675Z,2.50
2018-08-20T13:37:10.763Z,3.30
2018-08-20T13:39:38.851Z,3.00
2018-08-20T13:42:06.881Z,3.60
2018-08-20T13:44:34.943Z,5.27
2018-08-20T13:47:03.129Z,3.97
2018-08-20T13:49:31.207Z,5.00
2018-08-20T13:51:59.236Z,4.70
2018-08-20T13:54:27.319Z,4.80
2018-08-20T13:56:55.359Z,4.03
2018-08-20T13:59:23.428Z,5.60
2018-08-20T14:01:51.771Z,2.57
2018-08-20T14:04:20.119Z,3.63
2018-08-20T14:06:48.293Z,3.47
2018-08-20T14:09:16.366Z,3.97
2018-08-20T14:11:44.405Z,3.70
2018-08-20T14:14:12.524Z,3.27
2018-08-20T14:16:40.590Z,5.03
2018-08-20T14:19:08.595Z,3.63
2018-08-20T14:21:36.610Z,7.83
2018-08-20T14:24:04.632Z,3.17
2018-08-20T14:26:32.675Z,4.37
2018-08-20T14:29:00.734Z,3.17
2018-08-20T14:31:28.750Z,4.10
2018-08-20T14:33:56.735Z,6.80
2018-08-20T14:36:24.815Z,2.40
2018-08-20T14:38:52.842Z,7.60
2018-08-20T14:41:20.831Z,3.07
2018-08-20T14:43:48.856Z,5.40
2018-08-20T14:46:20.680Z,5.00
2018-08-20T14:48:48.874Z,3.13
2018-08-20T14:51:16.916Z,4.93
2018-08-20T14:53:45.095Z,8.77
2018-08-20T14:56:13.141Z,5.93
2018-08-20T14:58:41.201Z,9.23
2018-08-20T15:01:09.262Z,4.70
2018-08-20T15:03:37.250Z,3.73
2018-08-20T15:06:05.274Z,4.03
2018-08-20T15:08:34.903Z,3.97
2018-08-20T15:11:02.891Z,4.10
2018-08-20T15:13:30.959Z,4.57
2018-08-20T15:15:59.001Z,10.13
2018-08-20T15:18:27.093Z,5.13
2018-08-20T15:20:55.103Z,4.70
2018-08-20T15:23:23.145Z,4.20
2018-08-20T15:25:51.159Z,5.13
2018-08-20T15:28:19.176Z,5.70
2018-08-20T15:30:47.297Z,4.90
2018-08-20T15:33:15.349Z,4.40
2018-08-20T15:35:43.367Z,3.97
2018-08-20T15:38:11.426Z,4.80
2018-08-20T15:40:39.425Z,3.67
2018-08-20T15:43:07.477Z,4.20
2018-08-20T15:45:35.666Z,4.43
2018-08-20T15:48:03.774Z,7.53
2018-08-20T15:50:31.877Z,4.57
2018-08-20T15:52:59.959Z,5.43
2018-08-20T15:55:28.049Z,8.73
2018-08-20T15:57:56.066Z,5.57
2018-08-20T16:00:24.102Z,14.23
2018-08-20T16:02:52.193Z,3.93
2018-08-20T16:05:20.189Z,5.13
2018-08-20T16:07:52.326Z,4.83
2018-08-20T16:10:25.772Z,5.70
2018-08-20T16:12:59.003Z,8.27
2018-08-20T16:15:28.239Z,5.40
2018-08-20T16:18:00.995Z,7.90
2018-08-20T16:20:35.899Z,5.77
2018-08-20T16:26:07.395Z,4.73
2018-08-20T16:28:41.637Z,8.47
2018-08-20T16:31:13.889Z,7.40
2018-08-20T16:33:42.206Z,6.77
2018-08-20T16:36:10.257Z,10.00
2018-08-20T16:38:38.560Z,8.30
2018-08-20T16:41:06.758Z,6.10
2018-08-20T16:43:35.004Z,6.50
2018-08-20T16:46:03.111Z,10.00
2018-08-20T16:48:31.441Z,8.23
2018-08-20T16:50:59.706Z,7.70
2018-08-20T16:53:27.872Z,9.23
2018-08-20T16:55:55.960Z,6.40
2018-08-20T16:58:24.115Z,6.67
2018-08-20T17:00:52.237Z,5.60
2018-08-20T17:03:20.324Z,7.33
2018-08-20T17:05:49.763Z,11.00
2018-08-20T17:08:29.078Z,5.33
2018-08-20T17:10:57.317Z,8.33
2018-08-20T17:13:25.338Z,5.90
2018-08-20T17:15:53.373Z,5.70
2018-08-20T17:18:21.455Z,5.30
2018-08-20T17:20:50.739Z,5.00
2018-08-20T17:23:19.477Z,7.87
2018-08-20T17:25:47.599Z,10.50
2018-08-20T17:28:19.124Z,7.83
2018-08-20T17:30:47.757Z,5.63
2018-08-20T17:33:15.871Z,4.77
2018-08-20T17:35:43.988Z,4.33
2018-08-20T17:38:12.077Z,6.93
2018-08-20T17:40:41.240Z,7.27
2018-08-20T17:43:09.764Z,5.90
2018-08-20T17:45:38.515Z,5.80
2018-08-20T17:48:10.131Z,8.03
2018-08-20T17:50:39.764Z,10.73
2018-08-20T17:53:07.880Z,7.13
2018-08-20T17:55:35.955Z,12.50
2018-08-20T17:58:04.045Z,4.93
2018-08-20T18:00:53.431Z,6.07
2018-08-20T18:03:26.828Z,5.07
2018-08-20T18:05:59.320Z,5.03
2018-08-20T18:08:28.514Z,6.63
2018-08-20T18:10:56.937Z,10.60
2018-08-20T18:13:36.855Z,7.50
2018-08-20T18:16:06.996Z,4.47
2018-08-20T18:18:35.622Z,7.60
2018-08-20T18:21:03.642Z,9.30
2018-08-20T18:23:33.680Z,7.23
2018-08-20T18:26:01.961Z,7.83
2018-08-20T18:28:32.691Z,8.57
2018-08-20T18:31:05.123Z,8.70
2018-08-20T18:33:33.474Z,8.33
2018-08-20T18:36:06.679Z,8.60
2018-08-20T18:38:39.074Z,11.00
2018-08-20T18:41:07.159Z,5.97
2018-08-20T18:43:35.383Z,9.57
2018-08-20T18:46:03.978Z,12.43
2018-08-20T18:48:36.595Z,10.43
2018-08-20T18:51:06.171Z,6.97
2018-08-20T18:53:34.346Z,7.70
2018-08-20T18:56:04.695Z,7.53
2018-08-20T18:58:33.372Z,6.77
2018-08-20T19:01:02.556Z,9.27
2018-08-20T19:03:38.907Z,5.80
2018-08-20T19:06:06.983Z,6.50
2018-08-20T19:08:35.089Z,7.93
2018-08-20T19:11:03.107Z,8.77
2018-08-20T19:13:31.222Z,9.20
2018-08-20T19:15:59.330Z,13.03
2018-08-20T19:18:33.225Z,7.97
2018-08-20T19:21:01.249Z,9.03
2018-08-20T19:23:29.301Z,7.93
2018-08-20T19:25:57.347Z,9.40
2018-08-20T19:28:25.478Z,6.27
2018-08-20T19:30:54.828Z,6.40
2018-08-20T19:33:23.472Z,8.90
2018-08-20T19:35:52.052Z,7.57
2018-08-20T19:38:20.068Z,9.90
2018-08-20T19:40:52.536Z,7.90
2018-08-20T19:43:20.495Z,17.33
2018-08-20T19:45:48.545Z,11.13
2018-08-20T19:48:16.460Z,12.97
2018-08-20T19:50:44.406Z,8.23
2018-08-20T19:53:22.882Z,11.53
2018-08-20T19:55:51.401Z,10.83
2018-08-20T19:58:24.961Z,8.27
2018-08-20T20:01:00.982Z,7.80
2018-08-20T20:03:30.798Z,12.60
2018-08-20T20:05:58.834Z,11.50
2018-08-20T20:08:26.894Z,10.33
2018-08-20T20:10:54.948Z,8.47
2018-08-20T20:13:23.045Z,8.13
2018-08-20T20:15:51.054Z,7.63
2018-08-20T20:18:19.134Z,15.40
2018-08-20T20:20:47.284Z,10.10
2018-08-20T20:23:15.873Z,9.60
2018-08-20T20:25:44.386Z,11.77
2018-08-20T20:28:12.425Z,8.57
2018-08-20T20:30:40.535Z,15.50
2018-08-20T20:33:08.712Z,9.07
2018-08-20T20:35:36.848Z,12.53
2018-08-20T20:38:04.896Z,9.70
2018-08-20T20:40:32.991Z,9.40
2018-08-20T20:43:01.073Z,9.87
2018-08-20T20:45:29.106Z,11.63
2018-08-20T20:47:57.142Z,9.23
2018-08-20T20:50:25.304Z,9.53
2018-08-20T20:52:53.329Z,7.07
2018-08-20T20:55:21.365Z,8.17
2018-08-20T20:57:49.544Z,9.20
2018-08-20T21:00:17.568Z,13.13
2018-08-20T21:02:45.599Z,9.03
2018-08-20T21:05:13.604Z,17.63
2018-08-20T21:07:41.683Z,10.40
2018-08-20T21:10:09.741Z,10.30
2018-08-20T21:12:37.857Z,11.17
2018-08-20T21:15:06.618Z,14.03
2018-08-20T21:17:35.838Z,8.80
2018-08-20T21:20:04.550Z,8.97
2018-08-20T21:22:34.914Z,11.23
2018-08-20T21:25:03.488Z,14.30
2018-08-20T21:27:31.521Z,11.10
2018-08-20T21:30:00.853Z,8.30
2018-08-20T21:32:29.167Z,11.10
2018-08-20T21:34:57.377Z,9.00
2018-08-20T21:37:25.394Z,11.97
2018-08-20T21:39:53.438Z,9.80
2018-08-20T21:42:22.913Z,7.93
2018-08-20T21:44:51.022Z,10.10
2018-08-20T21:47:21.118Z,9.93
2018-08-20T21:49:49.143Z,12.83
2018-08-20T21:52:17.216Z,11.00
2018-08-20T21:54:45.297Z,11.20
2018-08-20T21:57:13.323Z,8.23
2018-08-20T21:59:47.092Z,17.63
2018-08-20T22:02:15.090Z,8.30
2018-08-20T22:04:43.102Z,9.63
2018-08-20T22:07:11.125Z,9.37
2018-08-20T22:09:39.148Z,16.60
2018-08-20T22:12:07.120Z,13.90
2018-08-20T22:14:35.161Z,9.20
2018-08-20T22:17:03.143Z,8.93
2018-08-20T22:19:31.130Z,10.20
2018-08-20T22:21:59.188Z,9.23
2018-08-20T22:24:27.267Z,9.40
2018-08-20T22:26:58.141Z,8.37
2018-08-20T22:29:33.338Z,9.70
2018-08-20T22:32:02.356Z,8.00
2018-08-20T22:34:30.362Z,10.57
2018-08-20T22:37:02.336Z,11.77
2018-08-20T22:39:30.394Z,9.40
2018-08-20T22:41:58.457Z,8.17
2018-08-20T22:44:26.466Z,10.50
2018-08-20T22:46:54.498Z,10.60
2018-08-20T22:49:22.526Z,8.00
2018-08-20T22:51:50.551Z,12.60
2018-08-20T22:54:18.596Z,10.77
2018-08-20T22:56:46.605Z,10.20
2018-08-20T22:59:14.630Z,10.90
2018-08-20T23:01:42.701Z,10.50
2018-08-20T23:04:10.725Z,13.40
2018-08-20T23:06:38.830Z,15.33
2018-08-20T23:09:17.863Z,10.07
2018-08-20T23:11:47.823Z,10.80
2018-08-20T23:14:15.908Z,8.13
2018-08-20T23:16:44.201Z,7.70
2018-08-20T23:19:12.260Z,9.50
2018-08-20T23:21:42.445Z,19.37
2018-08-20T23:24:11.087Z,7.60
2018-08-20T23:26:39.162Z,9.10
2018-08-20T23:29:07.283Z,11.60
2018-08-20T23:31:35.319Z,16.83
2018-08-20T23:34:03.748Z,14.90
2018-08-20T23:36:31.773Z,11.40
2018-08-20T23:38:59.773Z,9.07
2018-08-20T23:41:27.817Z,12.13
2018-08-20T23:43:58.850Z,11.80
2018-08-20T23:46:29.660Z,7.73
2018-08-20T23:48:57.659Z,8.57
2018-08-20T23:51:25.708Z,8.07
2018-08-20T23:53:53.706Z,10.43
2018-08-20T23:56:21.726Z,7.67
2018-08-20T23:58:49.714Z,8.23
